sensor_id;sensor_type;location;lat;lon;timestamp;pressure;altitude;pressure_sealevel;temperature;humidity
40650;BME280;26342;42.826;23.992;2023-03-21T00:01:24;95220.72;;;9.22;100.00
40650;BME280;26342;42.826;23.992;2023-03-21T00:03:50;95215.72;;;9.26;100.00
40650;BME280;26342;42.826;23.992;2023-03-21T00:06:15;95202.16;;;9.28;100.00
40650;BME280;26342;42.826;23.992;2023-03-21T00:08:41;95202.50;;;9.36;100.00
40650;BME280;26342;42.826;23.992;2023-03-21T00:11:08;95198.22;;;9.35;100.00
40650;BME280;26342;42.826;23.992;2023-03-21T00:13:35;95197.97;;;9.37;100.00
40650;BME280;26342;42.826;23.992;2023-03-21T00:16:20;95200.09;;;9.35;100.00
40650;BME280;26342;42.826;23.992;2023-03-21T00:18:49;95212.81;;;9.28;100.00
40650;BME280;26342;42.826;23.992;2023-03-21T00:21:19;95204.31;;;9.31;100.00
40650;BME280;26342;42.826;23.992;2023-03-21T00:23:45;95183.19;;;9.24;100.00
40650;BME280;26342;42.826;23.992;2023-03-21T00:26:12;95199.56;;;9.38;100.00
40650;BME280;26342;42.826;23.992;2023-03-21T00:28:41;95192.13;;;9.40;100.00
40650;BME280;26342;42.826;23.992;2023-03-21T00:31:07;95182.00;;;9.37;100.00
40650;BME280;26342;42.826;23.992;2023-03-21T00:33:33;95190.69;;;9.27;100.00
40650;BME280;26342;42.826;23.992;2023-03-21T00:36:00;95188.31;;;9.26;100.00
40650;BME280;26342;42.826;23.992;2023-03-21T00:38:25;95177.06;;;9.18;100.00
40650;BME280;26342;42.826;23.992;2023-03-21T00:40:51;95176.78;;;9.20;100.00
40650;BME280;26342;42.826;23.992;2023-03-21T00:43:17;95188.53;;;9.24;100.00
40650;BME280;26342;42.826;23.992;2023-03-21T00:45:44;95179.75;;;9.23;100.00
40650;BME280;26342;42.826;23.992;2023-03-21T00:48:10;95184.84;;;9.25;100.00
40650;BME280;26342;42.826;23.992;2023-03-21T00:50:37;95190.16;;;9.25;100.00
40650;BME280;26342;42.826;23.992;2023-03-21T00:53:03;95185.13;;;9.29;100.00
40650;BME280;26342;42.826;23.992;2023-03-21T00:55:29;95185.31;;;9.22;100.00
40650;BME280;26342;42.826;23.992;2023-03-21T00:57:54;95175.78;;;9.26;100.00
40650;BME280;26342;42.826;23.992;2023-03-21T01:00:20;95169.09;;;9.23;100.00
40650;BME280;26342;42.826;23.992;2023-03-21T01:02:46;95162.69;;;9.19;100.00
40650;BME280;26342;42.826;23.992;2023-03-21T01:05:28;95169.09;;;9.23;100.00
40650;BME280;26342;42.826;23.992;2023-03-21T01:08:15;95163.31;;;9.32;100.00
40650;BME280;26342;42.826;23.992;2023-03-21T01:10:43;95171.53;;;9.25;100.00
40650;BME280;26342;42.826;23.992;2023-03-21T01:13:09;95166.69;;;9.22;100.00
40650;BME280;26342;42.826;23.992;2023-03-21T01:15:36;95169.09;;;9.23;100.00
40650;BME280;26342;42.826;23.992;2023-03-21T01:18:06;95168.28;;;9.23;100.00
40650;BME280;26342;42.826;23.992;2023-03-21T01:20:31;95172.28;;;9.20;100.00
40650;BME280;26342;42.826;23.992;2023-03-21T01:22:57;95170.34;;;9.16;100.00
40650;BME280;26342;42.826;23.992;2023-03-21T01:25:22;95165.44;;;9.03;100.00
40650;BME280;26342;42.826;23.992;2023-03-21T01:27:47;95170.59;;;9.09;100.00
40650;BME280;26342;42.826;23.992;2023-03-21T01:30:13;95173.72;;;9.06;100.00
40650;BME280;26342;42.826;23.992;2023-03-21T01:32:39;95187.84;;;9.07;100.00
40650;BME280;26342;42.826;23.992;2023-03-21T01:35:04;95172.13;;;9.05;100.00
40650;BME280;26342;42.826;23.992;2023-03-21T01:37:30;95180.38;;;9.04;100.00
40650;BME280;26342;42.826;23.992;2023-03-21T01:39:56;95178.75;;;9.03;100.00
40650;BME280;26342;42.826;23.992;2023-03-21T01:42:22;95175.78;;;8.99;100.00
40650;BME280;26342;42.826;23.992;2023-03-21T01:44:57;95181.09;;;8.99;100.00
40650;BME280;26342;42.826;23.992;2023-03-21T01:47:23;95174.38;;;8.91;100.00
40650;BME280;26342;42.826;23.992;2023-03-21T01:49:51;95182.34;;;8.91;100.00
40650;BME280;26342;42.826;23.992;2023-03-21T01:52:31;95179.41;;;8.88;100.00
40650;BME280;26342;42.826;23.992;2023-03-21T01:54:57;95179.50;;;8.98;100.00
40650;BME280;26342;42.826;23.992;2023-03-21T01:57:29;95184.22;;;8.91;100.00
40650;BME280;26342;42.826;23.992;2023-03-21T01:59:58;95186.06;;;8.90;100.00
40650;BME280;26342;42.826;23.992;2023-03-21T02:02:34;95183.41;;;8.90;100.00
40650;BME280;26342;42.826;23.992;2023-03-21T02:05:02;95172.00;;;8.68;100.00
40650;BME280;26342;42.826;23.992;2023-03-21T02:07:31;95188.22;;;8.66;100.00
40650;BME280;26342;42.826;23.992;2023-03-21T02:10:01;95174.00;;;8.56;100.00
40650;BME280;26342;42.826;23.992;2023-03-21T02:12:29;95193.09;;;8.53;100.00
40650;BME280;26342;42.826;23.992;2023-03-21T02:14:56;95183.16;;;8.43;100.00
40650;BME280;26342;42.826;23.992;2023-03-21T02:17:54;95193.16;;;8.36;100.00
40650;BME280;26342;42.826;23.992;2023-03-21T02:31:53;95204.06;;;8.18;100.00
40650;BME280;26342;42.826;23.992;2023-03-21T02:39:27;95210.19;;;8.18;100.00
40650;BME280;26342;42.826;23.992;2023-03-21T02:42:08;95206.97;;;8.16;100.00
40650;BME280;26342;42.826;23.992;2023-03-21T02:44:49;95213.41;;;8.20;100.00
40650;BME280;26342;42.826;23.992;2023-03-21T02:47:32;95207.28;;;8.20;100.00
40650;BME280;26342;42.826;23.992;2023-03-21T02:50:10;95199.22;;;7.93;100.00
40650;BME280;26342;42.826;23.992;2023-03-21T02:52:37;95192.94;;;7.82;100.00
40650;BME280;26342;42.826;23.992;2023-03-21T02:55:07;95200.97;;;7.87;100.00
40650;BME280;26342;42.826;23.992;2023-03-21T02:57:39;95199.84;;;8.00;100.00
40650;BME280;26342;42.826;23.992;2023-03-21T03:00:07;95196.59;;;7.98;100.00
40650;BME280;26342;42.826;23.992;2023-03-21T03:02:37;95195.16;;;8.07;100.00
40650;BME280;26342;42.826;23.992;2023-03-21T03:05:12;95198.63;;;8.07;100.00
40650;BME280;26342;42.826;23.992;2023-03-21T03:13:33;95197.81;;;8.07;100.00
40650;BME280;26342;42.826;23.992;2023-03-21T03:18:58;95206.66;;;8.12;100.00
40650;BME280;26342;42.826;23.992;2023-03-21T03:24:15;95190.19;;;7.94;100.00
40650;BME280;26342;42.826;23.992;2023-03-21T03:29:16;95186.94;;;8.08;100.00
40650;BME280;26342;42.826;23.992;2023-03-21T03:31:55;95194.66;;;8.10;100.00
40650;BME280;26342;42.826;23.992;2023-03-21T03:34:26;95203.06;;;8.02;100.00
40650;BME280;26342;42.826;23.992;2023-03-21T03:36:56;95190.09;;;7.89;100.00
40650;BME280;26342;42.826;23.992;2023-03-21T03:39:28;95208.22;;;7.92;100.00
40650;BME280;26342;42.826;23.992;2023-03-21T03:42:04;95208.78;;;7.94;100.00
40650;BME280;26342;42.826;23.992;2023-03-21T03:44:31;95204.53;;;7.93;100.00
40650;BME280;26342;42.826;23.992;2023-03-21T03:47:09;95193.56;;;7.89;100.00
40650;BME280;26342;42.826;23.992;2023-03-21T03:49:39;95199.69;;;7.90;100.00
40650;BME280;26342;42.826;23.992;2023-03-21T03:52:12;95199.38;;;7.86;100.00
40650;BME280;26342;42.826;23.992;2023-03-21T03:54:41;95198.31;;;7.87;100.00
40650;BME280;26342;42.826;23.992;2023-03-21T03:57:08;95189.41;;;7.76;100.00
40650;BME280;26342;42.826;23.992;2023-03-21T03:59:37;95194.16;;;7.74;100.00
40650;BME280;26342;42.826;23.992;2023-03-21T04:02:02;95189.88;;;7.73;100.00
40650;BME280;26342;42.826;23.992;2023-03-21T04:04:28;95189.31;;;7.71;100.00
40650;BME280;26342;42.826;23.992;2023-03-21T04:06:56;95190.63;;;7.69;100.00
40650;BME280;26342;42.826;23.992;2023-03-21T04:09:23;95194.25;;;7.63;100.00
40650;BME280;26342;42.826;23.992;2023-03-21T04:11:49;95185.38;;;7.57;100.00
40650;BME280;26342;42.826;23.992;2023-03-21T04:14:15;95194.50;;;7.61;100.00
40650;BME280;26342;42.826;23.992;2023-03-21T04:16:41;95188.03;;;7.57;100.00
40650;BME280;26342;42.826;23.992;2023-03-21T04:19:06;95192.00;;;7.54;100.00
40650;BME280;26342;42.826;23.992;2023-03-21T04:21:31;95179.91;;;7.47;100.00
40650;BME280;26342;42.826;23.992;2023-03-21T04:23:57;95196.66;;;7.47;100.00
40650;BME280;26342;42.826;23.992;2023-03-21T04:26:23;95200.25;;;7.41;100.00
40650;BME280;26342;42.826;23.992;2023-03-21T04:28:49;95197.31;;;7.38;100.00
40650;BME280;26342;42.826;23.992;2023-03-21T04:31:15;95206.38;;;7.42;100.00
40650;BME280;26342;42.826;23.992;2023-03-21T04:33:44;95205.91;;;7.45;100.00
40650;BME280;26342;42.826;23.992;2023-03-21T04:36:12;95197.22;;;7.33;100.00
40650;BME280;26342;42.826;23.992;2023-03-21T04:38:49;95214.53;;;7.35;100.00
40650;BME280;26342;42.826;23.992;2023-03-21T04:41:14;95214.97;;;7.32;100.00
40650;BME280;26342;42.826;23.992;2023-03-21T04:43:40;95217.63;;;7.32;100.00
40650;BME280;26342;42.826;23.992;2023-03-21T04:46:05;95218.59;;;7.26;100.00
40650;BME280;26342;42.826;23.992;2023-03-21T04:48:31;95218.03;;;7.24;100.00
40650;BME280;26342;42.826;23.992;2023-03-21T04:50:56;95223.09;;;7.25;100.00
40650;BME280;26342;42.826;23.992;2023-03-21T04:53:22;95224.94;;;7.25;100.00
40650;BME280;26342;42.826;23.992;2023-03-21T04:55:47;95221.03;;;7.27;100.00
40650;BME280;26342;42.826;23.992;2023-03-21T04:58:12;95199.59;;;7.17;100.00
40650;BME280;26342;42.826;23.992;2023-03-21T05:00:38;95216.66;;;7.21;100.00
40650;BME280;26342;42.826;23.992;2023-03-21T05:03:05;95220.44;;;7.25;100.00
40650;BME280;26342;42.826;23.992;2023-03-21T05:05:36;95227.59;;;7.25;100.00
40650;BME280;26342;42.826;23.992;2023-03-21T05:08:05;95223.09;;;7.25;100.00
40650;BME280;26342;42.826;23.992;2023-03-21T05:10:31;95217.78;;;7.25;100.00
40650;BME280;26342;42.826;23.992;2023-03-21T05:12:56;95218.84;;;7.24;100.00
40650;BME280;26342;42.826;23.992;2023-03-21T05:15:21;95206.06;;;7.21;100.00
40650;BME280;26342;42.826;23.992;2023-03-21T05:17:47;95219.19;;;7.28;100.00
40650;BME280;26342;42.826;23.992;2023-03-21T05:20:13;95229.06;;;7.33;100.00
40650;BME280;26342;42.826;23.992;2023-03-21T05:22:41;95226.91;;;7.30;100.00
40650;BME280;26342;42.826;23.992;2023-03-21T05:25:07;95222.16;;;7.32;100.00
40650;BME280;26342;42.826;23.992;2023-03-21T05:27:34;95220.16;;;7.39;100.00
40650;BME280;26342;42.826;23.992;2023-03-21T05:30:00;95234.38;;;7.49;100.00
40650;BME280;26342;42.826;23.992;2023-03-21T05:32:26;95230.31;;;7.59;100.00
40650;BME280;26342;42.826;23.992;2023-03-21T05:34:51;95232.22;;;7.63;100.00
40650;BME280;26342;42.826;23.992;2023-03-21T05:37:17;95229.31;;;7.65;100.00
40650;BME280;26342;42.826;23.992;2023-03-21T05:39:42;95233.25;;;7.79;100.00
40650;BME280;26342;42.826;23.992;2023-03-21T05:42:08;95237.38;;;7.87;100.00
40650;BME280;26342;42.826;23.992;2023-03-21T05:44:33;95234.56;;;7.93;100.00
40650;BME280;26342;42.826;23.992;2023-03-21T05:46:58;95232.78;;;7.99;100.00
40650;BME280;26342;42.826;23.992;2023-03-21T05:49:24;95221.56;;;7.97;100.00
40650;BME280;26342;42.826;23.992;2023-03-21T05:51:51;95223.41;;;8.13;100.00
40650;BME280;26342;42.826;23.992;2023-03-21T05:54:16;95224.91;;;8.26;100.00
40650;BME280;26342;42.826;23.992;2023-03-21T05:56:42;95219.41;;;8.32;100.00
40650;BME280;26342;42.826;23.992;2023-03-21T05:59:07;95228.84;;;8.40;100.00
40650;BME280;26342;42.826;23.992;2023-03-21T06:01:33;95221.44;;;8.42;100.00
40650;BME280;26342;42.826;23.992;2023-03-21T06:03:58;95224.41;;;8.46;100.00
40650;BME280;26342;42.826;23.992;2023-03-21T06:06:24;95217.88;;;8.53;100.00
40650;BME280;26342;42.826;23.992;2023-03-21T06:08:49;95211.78;;;8.58;100.00
40650;BME280;26342;42.826;23.992;2023-03-21T06:11:29;95211.91;;;8.68;100.00
40650;BME280;26342;42.826;23.992;2023-03-21T06:13:55;95205.66;;;8.79;100.00
40650;BME280;26342;42.826;23.992;2023-03-21T06:16:20;95205.75;;;8.89;100.00
40650;BME280;26342;42.826;23.992;2023-03-21T06:18:46;95204.84;;;9.01;100.00
40650;BME280;26342;42.826;23.992;2023-03-21T06:21:12;95195.03;;;9.06;100.00
40650;BME280;26342;42.826;23.992;2023-03-21T06:23:37;95201.28;;;9.22;100.00
40650;BME280;26342;42.826;23.992;2023-03-21T06:26:04;95202.75;;;9.35;100.00
40650;BME280;26342;42.826;23.992;2023-03-21T06:28:29;95202.09;;;9.49;100.00
40650;BME280;26342;42.826;23.992;2023-03-21T06:30:55;95189.38;;;9.62;100.00
40650;BME280;26342;42.826;23.992;2023-03-21T06:33:20;95188.47;;;9.83;100.00
40650;BME280;26342;42.826;23.992;2023-03-21T06:35:53;95192.06;;;9.99;100.00
40650;BME280;26342;42.826;23.992;2023-03-21T06:38:19;95188.91;;;10.07;100.00
40650;BME280;26342;42.826;23.992;2023-03-21T06:40:45;95190.31;;;10.20;100.00
40650;BME280;26342;42.826;23.992;2023-03-21T06:43:11;95189.06;;;10.32;99.18
40650;BME280;26342;42.826;23.992;2023-03-21T06:45:37;95197.16;;;10.43;100.00
40650;BME280;26342;42.826;23.992;2023-03-21T06:48:02;95186.47;;;10.48;100.00
40650;BME280;26342;42.826;23.992;2023-03-21T06:50:28;95176.91;;;10.57;100.00
40650;BME280;26342;42.826;23.992;2023-03-21T06:52:53;95179.38;;;10.74;100.00
40650;BME280;26342;42.826;23.992;2023-03-21T06:55:21;95186.09;;;10.97;94.64
40650;BME280;26342;42.826;23.992;2023-03-21T06:57:51;95181.88;;;11.11;92.45
40650;BME280;26342;42.826;23.992;2023-03-21T07:00:17;95175.75;;;11.26;87.46
40650;BME280;26342;42.826;23.992;2023-03-21T07:02:42;95174.44;;;11.33;87.80
40650;BME280;26342;42.826;23.992;2023-03-21T07:05:08;95179.50;;;11.50;85.73
40650;BME280;26342;42.826;23.992;2023-03-21T07:07:33;95180.59;;;11.59;80.42
40650;BME280;26342;42.826;23.992;2023-03-21T07:09:59;95192.63;;;11.72;79.43
40650;BME280;26342;42.826;23.992;2023-03-21T07:12:24;95176.31;;;11.79;73.74
40650;BME280;26342;42.826;23.992;2023-03-21T07:14:50;95184.06;;;11.90;75.07
40650;BME280;26342;42.826;23.992;2023-03-21T07:17:15;95191.53;;;12.14;71.74
40650;BME280;26342;42.826;23.992;2023-03-21T07:19:40;95186.16;;;12.24;69.99
40650;BME280;26342;42.826;23.992;2023-03-21T07:22:06;95178.88;;;12.45;69.77
40650;BME280;26342;42.826;23.992;2023-03-21T07:24:31;95179.09;;;12.53;68.83
40650;BME280;26342;42.826;23.992;2023-03-21T07:26:57;95173.41;;;12.75;67.97
40650;BME280;26342;42.826;23.992;2023-03-21T07:29:22;95173.63;;;12.84;68.31
40650;BME280;26342;42.826;23.992;2023-03-21T07:31:49;95173.78;;;13.03;65.91
40650;BME280;26342;42.826;23.992;2023-03-21T07:34:14;95181.22;;;13.16;65.55
40650;BME280;26342;42.826;23.992;2023-03-21T07:36:41;95174.91;;;13.46;64.46
40650;BME280;26342;42.826;23.992;2023-03-21T07:39:06;95172.00;;;13.72;65.60
40650;BME280;26342;42.826;23.992;2023-03-21T07:41:32;95181.31;;;13.84;62.66
40650;BME280;26342;42.826;23.992;2023-03-21T07:43:58;95171.88;;;13.87;61.94
40650;BME280;26342;42.826;23.992;2023-03-21T07:46:23;95179.50;;;14.04;61.48
40650;BME280;26342;42.826;23.992;2023-03-21T07:48:49;95177.81;;;14.13;59.57
40650;BME280;26342;42.826;23.992;2023-03-21T07:51:14;95164.81;;;14.25;57.29
40650;BME280;26342;42.826;23.992;2023-03-21T07:53:40;95159.44;;;14.25;54.78
40650;BME280;26342;42.826;23.992;2023-03-21T07:56:06;95165.28;;;14.32;55.05
40650;BME280;26342;42.826;23.992;2023-03-21T07:58:32;95165.50;;;14.36;52.40
40650;BME280;26342;42.826;23.992;2023-03-21T08:00:58;95170.31;;;14.39;54.27
40650;BME280;26342;42.826;23.992;2023-03-21T08:03:24;95168.84;;;14.51;54.65
40650;BME280;26342;42.826;23.992;2023-03-21T08:05:53;95164.72;;;14.59;53.20
40650;BME280;26342;42.826;23.992;2023-03-21T08:08:19;95163.25;;;14.72;51.89
40650;BME280;26342;42.826;23.992;2023-03-21T08:10:44;95163.09;;;14.82;48.99
40650;BME280;26342;42.826;23.992;2023-03-21T08:13:10;95164.28;;;14.95;52.19
40650;BME280;26342;42.826;23.992;2023-03-21T08:15:35;95163.94;;;15.20;52.48
40650;BME280;26342;42.826;23.992;2023-03-21T08:18:01;95163.13;;;15.39;48.84
40650;BME280;26342;42.826;23.992;2023-03-21T08:20:27;95159.91;;;15.55;48.15
40650;BME280;26342;42.826;23.992;2023-03-21T08:22:53;95157.59;;;15.68;47.36
40650;BME280;26342;42.826;23.992;2023-03-21T08:25:20;95148.25;;;15.65;46.19
40650;BME280;26342;42.826;23.992;2023-03-21T08:27:46;95152.53;;;15.80;45.86
40650;BME280;26342;42.826;23.992;2023-03-21T08:30:14;95148.38;;;15.74;44.89
40650;BME280;26342;42.826;23.992;2023-03-21T08:32:41;95154.03;;;15.72;45.58
40650;BME280;26342;42.826;23.992;2023-03-21T08:35:08;95152.94;;;15.73;45.04
40650;BME280;26342;42.826;23.992;2023-03-21T08:37:39;95166.53;;;15.82;44.64
40650;BME280;26342;42.826;23.992;2023-03-21T08:40:06;95162.44;;;15.84;45.28
40650;BME280;26342;42.826;23.992;2023-03-21T08:42:35;95158.28;;;15.92;43.74
40650;BME280;26342;42.826;23.992;2023-03-21T08:45:01;95146.34;;;15.98;44.30
40650;BME280;26342;42.826;23.992;2023-03-21T08:47:26;95147.16;;;16.12;45.13
40650;BME280;26342;42.826;23.992;2023-03-21T08:49:51;95162.75;;;16.29;46.20
40650;BME280;26342;42.826;23.992;2023-03-21T08:52:17;95150.09;;;16.43;42.89
40650;BME280;26342;42.826;23.992;2023-03-21T08:54:42;95152.56;;;16.40;43.01
40650;BME280;26342;42.826;23.992;2023-03-21T08:57:09;95158.25;;;16.38;43.57
40650;BME280;26342;42.826;23.992;2023-03-21T08:59:35;95157.66;;;16.41;45.91
40650;BME280;26342;42.826;23.992;2023-03-21T09:02:01;95155.34;;;16.48;44.80
40650;BME280;26342;42.826;23.992;2023-03-21T09:04:27;95146.56;;;16.57;43.25
40650;BME280;26342;42.826;23.992;2023-03-21T09:06:55;95139.91;;;16.54;43.90
40650;BME280;26342;42.826;23.992;2023-03-21T09:09:20;95131.91;;;16.63;42.88
40650;BME280;26342;42.826;23.992;2023-03-21T09:11:46;95139.69;;;16.64;42.18
40650;BME280;26342;42.826;23.992;2023-03-21T09:14:11;95145.09;;;16.64;44.26
40650;BME280;26342;42.826;23.992;2023-03-21T09:16:37;95141.59;;;16.64;42.70
40650;BME280;26342;42.826;23.992;2023-03-21T09:19:02;95142.50;;;16.73;42.00
40650;BME280;26342;42.826;23.992;2023-03-21T09:21:29;95146.78;;;16.74;41.92
40650;BME280;26342;42.826;23.992;2023-03-21T09:23:54;95141.22;;;16.84;44.35
40650;BME280;26342;42.826;23.992;2023-03-21T09:26:23;95127.09;;;17.01;42.04
40650;BME280;26342;42.826;23.992;2023-03-21T09:28:49;95128.75;;;17.24;43.75
40650;BME280;26342;42.826;23.992;2023-03-21T09:31:16;95129.00;;;17.37;42.21
40650;BME280;26342;42.826;23.992;2023-03-21T09:33:45;95129.19;;;17.40;43.83
40650;BME280;26342;42.826;23.992;2023-03-21T09:36:11;95125.63;;;17.53;44.34
40650;BME280;26342;42.826;23.992;2023-03-21T09:38:41;95137.59;;;17.61;42.99
40650;BME280;26342;42.826;23.992;2023-03-21T09:47:13;95134.28;;;17.42;41.99
40650;BME280;26342;42.826;23.992;2023-03-21T09:49:41;95137.28;;;17.40;42.75
40650;BME280;26342;42.826;23.992;2023-03-21T09:52:18;95128.41;;;17.40;41.83
40650;BME280;26342;42.826;23.992;2023-03-21T09:54:46;95106.97;;;17.21;42.13
40650;BME280;26342;42.826;23.992;2023-03-21T09:57:15;95116.66;;;17.22;41.81
40650;BME280;26342;42.826;23.992;2023-03-21T09:59:47;95106.81;;;17.03;42.39
40650;BME280;26342;42.826;23.992;2023-03-21T10:03:03;95122.44;;;16.93;42.78
40650;BME280;26342;42.826;23.992;2023-03-21T10:05:23;95117.56;;;16.81;43.64
40650;BME280;26342;42.826;23.992;2023-03-21T10:07:58;95110.47;;;16.85;42.59
40650;BME280;26342;42.826;23.992;2023-03-21T10:10:31;95105.88;;;16.86;43.32
40650;BME280;26342;42.826;23.992;2023-03-21T10:12:58;95108.88;;;16.84;43.82
40650;BME280;26342;42.826;23.992;2023-03-21T10:15:26;95113.16;;;16.85;42.96
40650;BME280;26342;42.826;23.992;2023-03-21T10:18:04;95102.41;;;16.71;42.29
40650;BME280;26342;42.826;23.992;2023-03-21T10:20:31;95109.34;;;16.59;44.10
40650;BME280;26342;42.826;23.992;2023-03-21T10:22:58;95101.09;;;16.55;43.58
40650;BME280;26342;42.826;23.992;2023-03-21T10:25:43;95096.00;;;16.54;42.91
40650;BME280;26342;42.826;23.992;2023-03-21T10:28:16;95092.84;;;16.52;42.97
40650;BME280;26342;42.826;23.992;2023-03-21T10:30:50;95089.94;;;16.48;42.97
40650;BME280;26342;42.826;23.992;2023-03-21T10:33:27;95093.00;;;16.55;43.80
40650;BME280;26342;42.826;23.992;2023-03-21T10:36:23;95087.81;;;16.59;43.68
40650;BME280;26342;42.826;23.992;2023-03-21T10:41:25;95075.25;;;16.68;43.53
40650;BME280;26342;42.826;23.992;2023-03-21T10:44:28;95070.88;;;16.72;42.96
40650;BME280;26342;42.826;23.992;2023-03-21T10:46:56;95062.56;;;16.68;42.21
40650;BME280;26342;42.826;23.992;2023-03-21T10:49:22;95074.56;;;16.76;43.16
40650;BME280;26342;42.826;23.992;2023-03-21T10:51:52;95069.75;;;16.73;42.25
40650;BME280;26342;42.826;23.992;2023-03-21T10:54:21;95072.53;;;16.82;43.23
40650;BME280;26342;42.826;23.992;2023-03-21T10:59:35;95048.38;;;17.13;42.30
40650;BME280;26342;42.826;23.992;2023-03-21T11:02:03;95038.72;;;17.12;41.89
40650;BME280;26342;42.826;23.992;2023-03-21T11:04:29;95036.94;;;17.07;41.49
40650;BME280;26342;42.826;23.992;2023-03-21T11:07:03;95057.25;;;17.13;41.12
40650;BME280;26342;42.826;23.992;2023-03-21T11:10:12;95049.34;;;17.30;40.75
40650;BME280;26342;42.826;23.992;2023-03-21T11:15:18;95043.38;;;17.42;42.11
40650;BME280;26342;42.826;23.992;2023-03-21T11:17:48;95035.06;;;17.83;39.83
40650;BME280;26342;42.826;23.992;2023-03-21T11:20:17;95039.16;;;18.12;41.34
40650;BME280;26342;42.826;23.992;2023-03-21T11:22:46;95033.34;;;18.36;39.34
40650;BME280;26342;42.826;23.992;2023-03-21T11:25:32;95035.09;;;18.40;39.96
40650;BME280;26342;42.826;23.992;2023-03-21T11:28:05;95031.47;;;18.45;38.57
40650;BME280;26342;42.826;23.992;2023-03-21T11:30:31;95028.38;;;18.78;39.43
40650;BME280;26342;42.826;23.992;2023-03-21T11:33:00;95029.81;;;19.01;39.82
40650;BME280;26342;42.826;23.992;2023-03-21T11:35:32;95020.59;;;18.93;38.94
40650;BME280;26342;42.826;23.992;2023-03-21T11:37:57;95015.03;;;18.90;38.27
40650;BME280;26342;42.826;23.992;2023-03-21T11:40:24;95022.03;;;18.91;38.27
40650;BME280;26342;42.826;23.992;2023-03-21T11:42:52;95017.09;;;18.84;38.55
40650;BME280;26342;42.826;23.992;2023-03-21T11:45:23;95017.41;;;18.91;39.95
40650;BME280;26342;42.826;23.992;2023-03-21T11:47:51;95004.03;;;18.69;38.76
40650;BME280;26342;42.826;23.992;2023-03-21T11:50:28;95011.19;;;18.74;37.82
40650;BME280;26342;42.826;23.992;2023-03-21T11:58:53;95007.81;;;18.51;38.63
40650;BME280;26342;42.826;23.992;2023-03-21T12:01:51;95004.44;;;18.36;39.89
40650;BME280;26342;42.826;23.992;2023-03-21T12:04:39;95000.28;;;18.39;39.68
40650;BME280;26342;42.826;23.992;2023-03-21T12:21:19;94979.25;;;18.01;43.49
40650;BME280;26342;42.826;23.992;2023-03-21T12:26:24;94984.22;;;17.77;44.12
40650;BME280;26342;42.826;23.992;2023-03-21T12:39:49;94982.50;;;17.81;43.23
40650;BME280;26342;42.826;23.992;2023-03-21T12:51:05;94975.19;;;17.81;44.29
40650;BME280;26342;42.826;23.992;2023-03-21T12:54:00;94968.22;;;17.80;44.30
40650;BME280;26342;42.826;23.992;2023-03-21T12:56:33;94970.38;;;17.70;44.20
40650;BME280;26342;42.826;23.992;2023-03-21T12:59:18;94971.56;;;17.55;44.34
40650;BME280;26342;42.826;23.992;2023-03-21T13:01:46;94963.38;;;17.38;44.81
40650;BME280;26342;42.826;23.992;2023-03-21T13:04:37;94969.38;;;17.35;44.91
40650;BME280;26342;42.826;23.992;2023-03-21T13:07:08;94972.84;;;17.26;44.84
40650;BME280;26342;42.826;23.992;2023-03-21T13:09:39;94966.97;;;17.24;45.30
40650;BME280;26342;42.826;23.992;2023-03-21T13:12:20;94971.25;;;17.25;45.35
40650;BME280;26342;42.826;23.992;2023-03-21T13:15:00;94965.06;;;17.25;46.23
40650;BME280;26342;42.826;23.992;2023-03-21T13:17:39;94955.81;;;17.17;45.98
40650;BME280;26342;42.826;23.992;2023-03-21T13:20:27;94955.88;;;17.26;45.74
40650;BME280;26342;42.826;23.992;2023-03-21T13:22:55;94946.06;;;17.30;45.67
40650;BME280;26342;42.826;23.992;2023-03-21T13:25:24;94942.53;;;17.29;46.11
40650;BME280;26342;42.826;23.992;2023-03-21T13:27:59;94951.94;;;17.32;45.18
40650;BME280;26342;42.826;23.992;2023-03-21T13:30:27;94951.56;;;17.25;45.38
40650;BME280;26342;42.826;23.992;2023-03-21T13:33:06;94947.72;;;17.17;45.25
40650;BME280;26342;42.826;23.992;2023-03-21T13:35:37;94940.50;;;17.04;45.81
40650;BME280;26342;42.826;23.992;2023-03-21T13:38:20;94945.78;;;17.09;45.47
40650;BME280;26342;42.826;23.992;2023-03-21T13:40:58;94937.38;;;17.11;45.91
40650;BME280;26342;42.826;23.992;2023-03-21T13:46:07;94935.16;;;16.90;46.32
40650;BME280;26342;42.826;23.992;2023-03-21T13:51:37;94933.53;;;16.81;46.31
40650;BME280;26342;42.826;23.992;2023-03-21T13:59:12;94927.16;;;16.77;46.65
40650;BME280;26342;42.826;23.992;2023-03-21T14:04:29;94932.50;;;16.54;47.38
40650;BME280;26342;42.826;23.992;2023-03-21T14:07:02;94931.13;;;16.43;47.58
40650;BME280;26342;42.826;23.992;2023-03-21T14:09:34;94934.03;;;16.46;47.99
40650;BME280;26342;42.826;23.992;2023-03-21T14:12:02;94934.03;;;16.46;47.43
40650;BME280;26342;42.826;23.992;2023-03-21T14:14:32;94916.38;;;16.40;47.64
40650;BME280;26342;42.826;23.992;2023-03-21T14:17:01;94927.84;;;16.46;47.69
40650;BME280;26342;42.826;23.992;2023-03-21T14:19:31;94919.94;;;16.50;47.97
40650;BME280;26342;42.826;23.992;2023-03-21T14:21:57;94930.22;;;16.47;48.07
40650;BME280;26342;42.826;23.992;2023-03-21T14:24:22;94922.63;;;16.50;48.16
40650;BME280;26342;42.826;23.992;2023-03-21T14:26:51;94926.44;;;16.48;48.36
40650;BME280;26342;42.826;23.992;2023-03-21T14:29:37;94925.34;;;16.50;47.83
40650;BME280;26342;42.826;23.992;2023-03-21T14:32:03;94923.38;;;16.41;47.81
40650;BME280;26342;42.826;23.992;2023-03-21T14:34:32;94931.28;;;16.38;47.69
40650;BME280;26342;42.826;23.992;2023-03-21T14:36:59;94927.81;;;16.24;47.92
40650;BME280;26342;42.826;23.992;2023-03-21T14:39:28;94924.22;;;16.28;48.21
40650;BME280;26342;42.826;23.992;2023-03-21T14:42:14;94920.72;;;16.28;47.83